Time;durP1;ratioP1;P1;durP2;ratioP2;P2;SDS_P1;SDS_P2;PMS_P1;PMS_P2;Temp;Humidity;BMP_temperature;BMP_pressure;BME280_temperature;BME280_humidity;BME280_pressure;Samples;Min_cycle;Max_cycle;Signal;HPM_P1;HPM_P2
2021/04/24 00:01:52;;;;;;;6.40;4.13;;;5.30;90.40;;;;;;5084181;28;20314;-71
2021/04/24 00:04:19;;;;;;;9.15;4.93;;;5.30;90.60;;;;;;5084370;28;20258;-71
2021/04/24 00:06:45;;;;;;;10.60;4.70;;;5.20;90.70;;;;;;5084369;28;20686;-72
2021/04/24 00:09:11;;;;;;;8.40;4.60;;;5.20;90.70;;;;;;5082163;28;20231;-73
2021/04/24 00:11:38;;;;;;;8.18;4.40;;;5.20;91.00;;;;;;5083828;28;20211;-73
2021/04/24 00:14:04;;;;;;;4.85;4.20;;;5.20;90.90;;;;;;5084174;28;20272;-73
2021/04/24 00:16:31;;;;;;;6.35;4.65;;;5.10;91.20;;;;;;5085768;28;20215;-72
2021/04/24 00:18:57;;;;;;;9.05;5.00;;;5.10;91.50;;;;;;5086490;28;20281;-71
2021/04/24 00:21:24;;;;;;;10.52;5.30;;;5.10;91.40;;;;;;5085761;28;20224;-72
2021/04/24 00:23:51;;;;;;;9.23;5.20;;;5.00;91.50;;;;;;5086764;28;20204;-72
2021/04/24 00:26:17;;;;;;;5.93;4.60;;;5.00;91.60;;;;;;5086163;28;20210;-73
2021/04/24 00:28:43;;;;;;;8.27;4.65;;;5.00;91.70;;;;;;5085609;28;20227;-71
2021/04/24 00:31:09;;;;;;;7.70;5.22;;;5.00;92.00;;;;;;5085420;28;20196;-73
2021/04/24 00:33:36;;;;;;;6.60;4.65;;;5.00;91.90;;;;;;5085834;28;20578;-72
2021/04/24 00:36:03;;;;;;;5.53;4.38;;;4.90;92.10;;;;;;5086433;28;20200;-71
2021/04/24 00:38:30;;;;;;;9.27;4.60;;;4.90;92.10;;;;;;5086021;28;20219;-73
2021/04/24 00:40:56;;;;;;;9.63;4.55;;;4.90;92.40;;;;;;5085416;28;20273;-73
2021/04/24 00:43:23;;;;;;;9.93;5.50;;;4.90;92.20;;;;;;5085392;28;20204;-72
2021/04/24 00:45:49;;;;;;;9.50;4.90;;;4.80;92.70;;;;;;5085747;28;20206;-72
2021/04/24 00:48:16;;;;;;;7.72;5.18;;;4.80;92.70;;;;;;5085269;28;20204;-72
2021/04/24 00:50:42;;;;;;;7.57;5.20;;;4.80;92.70;;;;;;5085037;28;20196;-72
2021/04/24 00:53:11;;;;;;;8.32;5.05;;;4.70;92.80;;;;;;5085461;28;20199;-72
2021/04/24 00:55:39;;;;;;;5.90;4.78;;;4.70;92.90;;;;;;5085762;28;20211;-71
2021/04/24 00:58:06;;;;;;;6.18;4.95;;;4.70;92.80;;;;;;5085095;28;20254;-73
2021/04/24 01:00:32;;;;;;;9.75;5.10;;;4.70;92.90;;;;;;5084718;28;20234;-72
2021/04/24 01:02:59;;;;;;;7.97;5.10;;;4.60;92.90;;;;;;5084784;28;20233;-69
2021/04/24 01:05:27;;;;;;;8.00;4.45;;;4.60;93.10;;;;;;5084259;28;20211;-70
2021/04/24 01:07:53;;;;;;;7.97;5.40;;;4.50;93.20;;;;;;5085225;28;20208;-70
2021/04/24 01:10:20;;;;;;;7.45;5.30;;;4.50;93.30;;;;;;5084306;28;20706;-69
2021/04/24 01:12:48;;;;;;;8.68;5.10;;;4.50;93.60;;;;;;5085006;28;20670;-70
2021/04/24 01:15:16;;;;;;;7.82;5.32;;;4.50;93.40;;;;;;5084635;28;20196;-70
2021/04/24 01:17:43;;;;;;;7.53;5.10;;;4.40;93.40;;;;;;5085224;28;20207;-70
2021/04/24 01:20:11;;;;;;;8.95;4.43;;;4.40;93.80;;;;;;5084517;28;20223;-70
2021/04/24 01:22:40;;;;;;;8.90;5.63;;;4.40;93.80;;;;;;5084722;28;20233;-69
2021/04/24 01:25:08;;;;;;;7.65;4.53;;;4.40;94.00;;;;;;5085198;28;20741;-70
2021/04/24 01:27:35;;;;;;;8.15;4.00;;;4.30;94.00;;;;;;5084724;28;20214;-70
2021/04/24 01:30:01;;;;;;;7.38;4.95;;;4.30;94.00;;;;;;5084567;28;20227;-69
2021/04/24 01:32:28;;;;;;;6.47;5.00;;;4.30;94.20;;;;;;5084302;28;20204;-70
2021/04/24 01:34:54;;;;;;;6.85;4.53;;;4.20;94.20;;;;;;5084772;28;20574;-70
2021/04/24 01:37:20;;;;;;;7.57;4.97;;;4.20;94.50;;;;;;5084751;28;20191;-70
2021/04/24 01:39:47;;;;;;;8.88;5.00;;;4.20;94.50;;;;;;5084722;28;21006;-68
2021/04/24 01:42:14;;;;;;;7.25;4.93;;;4.20;94.30;;;;;;5083821;28;20203;-69
2021/04/24 01:44:40;;;;;;;11.48;5.40;;;4.10;94.90;;;;;;5084782;28;20204;-68
2021/04/24 01:47:06;;;;;;;7.03;5.13;;;4.10;95.20;;;;;;5085030;28;20249;-69
2021/04/24 01:49:32;;;;;;;6.95;4.90;;;4.10;95.20;;;;;;5085044;28;20364;-68
2021/04/24 01:51:59;;;;;;;6.50;5.13;;;4.00;95.10;;;;;;5084372;28;20238;-70
2021/04/24 01:54:26;;;;;;;7.03;6.15;;;4.00;95.00;;;;;;5084373;28;20207;-69
2021/04/24 01:56:56;;;;;;;9.30;4.78;;;4.10;95.00;;;;;;5084350;28;20207;-69
2021/04/24 01:59:26;;;;;;;8.43;5.25;;;4.00;95.00;;;;;;5084075;28;20590;-68
2021/04/24 02:01:55;;;;;;;6.80;5.13;;;4.00;95.40;;;;;;5084264;28;20223;-68
2021/04/24 02:04:23;;;;;;;9.70;5.30;;;3.90;95.50;;;;;;5086202;28;20196;-69
2021/04/24 02:06:50;;;;;;;14.80;6.38;;;3.90;95.70;;;;;;5084861;28;20208;-70
2021/04/24 02:09:18;;;;;;;8.80;5.43;;;3.80;95.70;;;;;;5084617;28;20238;-68
2021/04/24 02:12:01;;;;;;;9.30;4.82;;;3.80;95.90;;;;;;5084064;28;20196;-69
2021/04/24 02:14:27;;;;;;;10.32;5.65;;;3.80;95.90;;;;;;5085966;28;20207;-71
2021/04/24 02:16:53;;;;;;;10.80;5.05;;;3.80;95.90;;;;;;5156248;22;20231;-70
2021/04/24 02:19:19;;;;;;;9.63;5.32;;;3.80;96.10;;;;;;5080378;28;20216;-69
2021/04/24 02:21:46;;;;;;;11.07;5.07;;;3.70;96.60;;;;;;5071138;28;20703;-70
2021/04/24 02:24:12;;;;;;;6.90;5.03;;;3.70;96.50;;;;;;5072073;28;20269;-69
2021/04/24 02:26:38;;;;;;;7.65;5.20;;;3.70;96.70;;;;;;5071850;28;20207;-70
2021/04/24 02:29:05;;;;;;;6.57;5.57;;;3.60;96.80;;;;;;5071936;28;20231;-69
2021/04/24 02:31:31;;;;;;;11.25;6.05;;;3.60;96.80;;;;;;5071155;28;20254;-70
2021/04/24 02:33:58;;;;;;;9.57;5.40;;;3.60;96.80;;;;;;5071240;28;20196;-70
2021/04/24 02:36:24;;;;;;;9.32;5.65;;;3.60;97.00;;;;;;5071210;28;20207;-70
2021/04/24 02:38:52;;;;;;;9.05;5.13;;;3.60;96.90;;;;;;5071057;28;20228;-69
2021/04/24 02:41:19;;;;;;;7.03;4.85;;;3.50;97.00;;;;;;5070753;28;20695;-70
2021/04/24 02:43:45;;;;;;;10.18;5.13;;;3.50;97.30;;;;;;5070947;28;20574;-71
2021/04/24 02:46:13;;;;;;;8.10;5.15;;;3.50;97.40;;;;;;5071151;28;20200;-71
2021/04/24 02:48:39;;;;;;;8.18;4.82;;;3.40;97.50;;;;;;5071261;28;20266;-70
2021/04/24 02:51:06;;;;;;;6.25;5.15;;;3.40;97.50;;;;;;5070747;28;20207;-70
2021/04/24 02:53:32;;;;;;;9.05;5.43;;;3.30;97.70;;;;;;5071223;28;20364;-70
2021/04/24 02:55:58;;;;;;;8.43;5.55;;;3.30;97.90;;;;;;5070981;28;20200;-71
2021/04/24 02:58:24;;;;;;;6.00;4.40;;;3.30;97.90;;;;;;5070852;28;20597;-71
2021/04/24 03:00:50;;;;;;;10.85;5.30;;;3.30;98.40;;;;;;5070076;28;20228;-71
2021/04/24 03:03:17;;;;;;;12.52;5.60;;;3.30;98.10;;;;;;5071072;28;20211;-71
2021/04/24 03:05:44;;;;;;;9.52;5.70;;;3.20;98.10;;;;;;5071203;28;20581;-71
2021/04/24 03:08:12;;;;;;;7.38;5.30;;;3.20;98.30;;;;;;5071069;28;20204;-71
2021/04/24 03:10:40;;;;;;;8.35;5.63;;;3.20;98.40;;;;;;5069773;28;20223;-71
2021/04/24 03:13:08;;;;;;;8.02;5.28;;;3.20;98.70;;;;;;5071104;28;20208;-71
2021/04/24 03:15:34;;;;;;;9.13;5.28;;;3.10;98.80;;;;;;5070240;28;20616;-71
2021/04/24 03:18:00;;;;;;;9.00;5.57;;;3.10;99.00;;;;;;5070581;28;20204;-70
2021/04/24 03:20:28;;;;;;;7.07;5.22;;;3.10;99.20;;;;;;5070135;28;20212;-70
2021/04/24 03:22:54;;;;;;;8.07;5.30;;;3.10;99.30;;;;;;5070438;28;20211;-71
2021/04/24 03:25:20;;;;;;;6.38;5.03;;;3.10;99.40;;;;;;5070195;28;20200;-70
2021/04/24 03:27:46;;;;;;;7.53;5.18;;;3.10;99.40;;;;;;5070181;28;20217;-71
2021/04/24 03:30:14;;;;;;;12.35;6.38;;;3.10;99.50;;;;;;5069633;28;20224;-71
2021/04/24 03:32:41;;;;;;;6.60;4.53;;;3.10;99.60;;;;;;5070495;28;20200;-70
2021/04/24 03:35:09;;;;;;;9.63;5.45;;;3.10;99.60;;;;;;5069979;28;20204;-70
2021/04/24 03:37:36;;;;;;;7.43;4.88;;;3.00;99.70;;;;;;5069947;28;20216;-71
2021/04/24 03:40:04;;;;;;;10.02;5.45;;;3.00;99.70;;;;;;5070006;28;20735;-71
2021/04/24 03:42:30;;;;;;;11.50;5.60;;;3.00;99.90;;;;;;5069843;28;20196;-71
2021/04/24 03:44:57;;;;;;;7.60;5.40;;;2.90;99.90;;;;;;5069871;28;20254;-71
2021/04/24 03:47:23;;;;;;;10.48;5.32;;;2.90;99.90;;;;;;5070287;28;20200;-71
2021/04/24 03:49:49;;;;;;;5.60;4.75;;;2.90;99.90;;;;;;5069905;28;20227;-71
2021/04/24 03:52:15;;;;;;;7.97;6.00;;;2.80;99.90;;;;;;5069754;28;20196;-71
2021/04/24 03:54:42;;;;;;;10.18;5.13;;;2.80;99.90;;;;;;5069673;28;20703;-71
2021/04/24 03:57:08;;;;;;;10.35;5.75;;;2.80;99.90;;;;;;5069825;28;20212;-71
2021/04/24 03:59:35;;;;;;;10.32;5.63;;;2.80;99.90;;;;;;5069475;28;20227;-71
2021/04/24 04:02:01;;;;;;;6.97;5.10;;;2.80;99.90;;;;;;5069259;28;20282;-70
2021/04/24 04:04:27;;;;;;;10.13;5.65;;;2.80;99.90;;;;;;5069726;28;20277;-71
2021/04/24 04:06:53;;;;;;;8.07;5.32;;;2.70;99.90;;;;;;5069413;28;20196;-70
2021/04/24 04:09:20;;;;;;;8.30;5.80;;;2.70;99.90;;;;;;5072876;28;20700;-71
2021/04/24 04:11:47;;;;;;;10.77;6.45;;;2.70;99.90;;;;;;5069356;28;20208;-71
2021/04/24 04:14:13;;;;;;;15.02;5.85;;;2.70;99.90;;;;;;5069917;28;20204;-71
2021/04/24 04:16:39;;;;;;;12.65;5.45;;;2.70;99.90;;;;;;5069116;28;20627;-70
2021/04/24 04:19:05;;;;;;;7.97;5.35;;;2.70;99.90;;;;;;5069212;28;20216;-71
2021/04/24 04:21:32;;;;;;;9.30;5.97;;;2.70;99.90;;;;;;5068761;28;20227;-71
2021/04/24 04:23:58;;;;;;;8.30;5.90;;;2.70;99.90;;;;;;5069155;28;20346;-70
2021/04/24 04:26:24;;;;;;;9.10;5.75;;;2.60;99.90;;;;;;5069146;28;20208;-70
2021/04/24 04:28:52;;;;;;;7.57;5.30;;;2.60;99.90;;;;;;5069095;28;20309;-71
2021/04/24 04:31:18;;;;;;;8.20;5.97;;;2.70;99.90;;;;;;5068583;28;20566;-71
2021/04/24 04:33:44;;;;;;;9.43;5.60;;;2.70;99.90;;;;;;5068746;28;20291;-71
2021/04/24 04:36:10;;;;;;;8.80;5.57;;;2.70;99.90;;;;;;5068619;28;20647;-71
2021/04/24 04:38:36;;;;;;;9.68;5.85;;;2.70;99.90;;;;;;5069098;28;20243;-71
2021/04/24 04:41:04;;;;;;;8.30;5.85;;;2.70;99.90;;;;;;5067646;28;20224;-71
2021/04/24 04:43:30;;;;;;;10.00;5.90;;;2.60;99.90;;;;;;5068996;28;20200;-70
2021/04/24 04:45:57;;;;;;;8.38;6.30;;;2.70;99.90;;;;;;5068629;28;20200;-70
2021/04/24 04:48:23;;;;;;;12.55;6.07;;;2.70;99.90;;;;;;5069002;28;20231;-71
2021/04/24 04:50:50;;;;;;;11.00;6.63;;;2.70;99.90;;;;;;5068349;28;20205;-70
2021/04/24 04:53:16;;;;;;;9.05;5.97;;;2.70;99.90;;;;;;5068727;28;20204;-71
2021/04/24 04:55:42;;;;;;;9.63;5.68;;;2.70;99.90;;;;;;5068502;28;20204;-70
2021/04/24 04:58:09;;;;;;;8.27;5.45;;;2.80;99.90;;;;;;5068649;28;20558;-71
2021/04/24 05:00:35;;;;;;;10.45;6.97;;;2.80;99.90;;;;;;5068008;28;20278;-71
2021/04/24 05:03:02;;;;;;;9.10;6.05;;;2.80;99.90;;;;;;5068724;28;20238;-71
2021/04/24 05:05:28;;;;;;;9.82;6.35;;;2.90;99.90;;;;;;5068476;28;20672;-71
2021/04/24 05:07:55;;;;;;;6.00;5.13;;;3.00;99.90;;;;;;5068245;28;20675;-71
2021/04/24 05:10:22;;;;;;;7.72;6.30;;;3.00;99.90;;;;;;5067914;28;20298;-70
2021/04/24 05:12:49;;;;;;;9.13;6.05;;;3.10;99.90;;;;;;5068218;28;20577;-71
2021/04/24 05:15:15;;;;;;;7.80;5.80;;;3.20;99.90;;;;;;5068321;28;20212;-71
2021/04/24 05:17:42;;;;;;;10.38;5.65;;;3.20;99.90;;;;;;5067947;28;20474;-71
2021/04/24 05:20:10;;;;;;;8.48;5.93;;;3.30;99.90;;;;;;5067802;28;20230;-70
2021/04/24 05:22:36;;;;;;;6.88;5.57;;;3.30;99.90;;;;;;5068471;28;20733;-70
2021/04/24 05:25:04;;;;;;;10.27;6.15;;;3.40;99.90;;;;;;5068622;28;20200;-71
2021/04/24 05:27:31;;;;;;;9.60;5.28;;;3.50;99.90;;;;;;5068290;28;20200;-71
2021/04/24 05:29:57;;;;;;;7.10;5.60;;;3.70;99.90;;;;;;5067757;28;20311;-72
2021/04/24 05:32:23;;;;;;;8.77;5.75;;;3.80;99.90;;;;;;5067508;28;20223;-71
2021/04/24 05:34:50;;;;;;;11.43;5.15;;;3.90;99.90;;;;;;5067838;28;20215;-71
2021/04/24 05:37:17;;;;;;;7.70;5.30;;;4.00;99.90;;;;;;5068093;28;20683;-71
2021/04/24 05:39:43;;;;;;;7.95;5.05;;;4.20;99.90;;;;;;5067680;28;20228;-71
2021/04/24 05:42:11;;;;;;;7.05;4.90;;;4.30;99.90;;;;;;5067555;28;20220;-70
2021/04/24 05:44:37;;;;;;;6.00;4.30;;;4.40;99.90;;;;;;5068367;28;20200;-71
2021/04/24 05:47:03;;;;;;;10.15;5.40;;;4.50;99.90;;;;;;5067643;28;20212;-71
2021/04/24 05:49:31;;;;;;;10.10;5.40;;;4.60;99.90;;;;;;5068173;28;20221;-71
2021/04/24 05:51:58;;;;;;;6.22;4.50;;;4.60;99.90;;;;;;5069078;28;20690;-71
2021/04/24 05:54:25;;;;;;;9.40;5.20;;;4.70;99.90;;;;;;5072119;28;20557;-73
2021/04/24 05:56:51;;;;;;;5.65;4.80;;;4.80;99.90;;;;;;5072049;28;20204;-73
2021/04/24 05:59:17;;;;;;;8.35;5.93;;;4.90;99.90;;;;;;5071683;28;20223;-73
2021/04/24 06:01:44;;;;;;;11.13;6.68;;;5.00;99.90;;;;;;5071164;28;20220;-73
2021/04/24 06:04:10;;;;;;;13.40;7.25;;;5.10;99.90;;;;;;5070254;28;20285;-73
2021/04/24 06:06:36;;;;;;;9.65;6.10;;;5.30;99.90;;;;;;5071732;28;20208;-71
2021/04/24 06:09:03;;;;;;;7.93;5.93;;;5.40;99.90;;;;;;5072122;28;20219;-71
2021/04/24 06:11:30;;;;;;;9.00;5.13;;;5.60;99.90;;;;;;5070996;28;20197;-70
2021/04/24 06:13:56;;;;;;;8.90;5.70;;;5.80;99.90;;;;;;5071898;28;20545;-70
2021/04/24 06:16:22;;;;;;;8.23;6.80;;;6.00;99.90;;;;;;5071441;28;20692;-71
2021/04/24 06:18:48;;;;;;;7.40;5.47;;;6.20;99.90;;;;;;5071254;28;20223;-71
2021/04/24 06:21:14;;;;;;;7.82;6.70;;;6.40;99.90;;;;;;5070855;28;20247;-70
2021/04/24 06:23:41;;;;;;;8.98;6.25;;;6.60;99.90;;;;;;5071153;28;20208;-70
2021/04/24 06:26:07;;;;;;;11.75;6.50;;;6.80;99.90;;;;;;5071353;28;20208;-70
2021/04/24 06:28:34;;;;;;;10.57;6.10;;;7.00;98.20;;;;;;5070953;28;20586;-71
2021/04/24 06:31:00;;;;;;;10.02;6.50;;;7.30;96.10;;;;;;5070907;28;20205;-71
2021/04/24 06:33:26;;;;;;;11.50;7.72;;;7.40;95.80;;;;;;5070497;28;20462;-70
2021/04/24 06:35:52;;;;;;;9.70;6.68;;;7.50;95.80;;;;;;5070824;28;20201;-70
2021/04/24 06:38:19;;;;;;;10.35;7.13;;;7.60;95.40;;;;;;5071426;28;20259;-70
2021/04/24 06:40:45;;;;;;;11.43;6.60;;;7.70;95.80;;;;;;5070349;28;20246;-71
2021/04/24 06:43:11;;;;;;;12.80;7.55;;;7.80;95.40;;;;;;5071250;28;20205;-70
2021/04/24 06:45:38;;;;;;;12.07;7.40;;;8.00;95.50;;;;;;5071184;28;20686;-70
2021/04/24 06:48:05;;;;;;;10.57;6.97;;;8.20;95.20;;;;;;5071021;28;20203;-70
2021/04/24 06:50:31;;;;;;;10.30;6.63;;;8.30;94.50;;;;;;5070318;28;20254;-71
2021/04/24 06:52:57;;;;;;;14.30;7.28;;;8.40;94.30;;;;;;5070879;28;20209;-71
2021/04/24 06:55:25;;;;;;;9.80;6.10;;;8.50;93.40;;;;;;5070726;28;20196;-70
2021/04/24 06:57:52;;;;;;;10.75;6.50;;;8.70;92.40;;;;;;5071136;28;20206;-69
2021/04/24 07:00:19;;;;;;;12.30;6.30;;;8.80;92.20;;;;;;5070225;28;20589;-69
2021/04/24 07:02:46;;;;;;;8.32;6.63;;;8.90;92.60;;;;;;5070747;28;20200;-70
2021/04/24 07:05:15;;;;;;;9.38;7.00;;;9.00;92.50;;;;;;5070062;28;20208;-69
2021/04/24 07:07:42;;;;;;;12.30;6.40;;;9.10;92.80;;;;;;5070320;28;20215;-69
2021/04/24 07:10:10;;;;;;;8.80;6.07;;;9.20;93.00;;;;;;5070263;28;20634;-69
2021/04/24 07:12:37;;;;;;;9.70;6.30;;;9.30;92.30;;;;;;5070301;28;20576;-70
2021/04/24 07:15:04;;;;;;;8.98;5.95;;;9.40;91.50;;;;;;5070515;28;20197;-69
2021/04/24 07:17:30;;;;;;;8.38;5.80;;;9.60;91.00;;;;;;5069676;28;20278;-69
2021/04/24 07:19:57;;;;;;;9.15;5.63;;;9.70;91.40;;;;;;5070013;28;20236;-70
2021/04/24 07:22:24;;;;;;;8.80;5.97;;;9.90;90.90;;;;;;5070374;28;20224;-69
2021/04/24 07:24:51;;;;;;;9.90;5.80;;;10.00;90.20;;;;;;5070063;28;20209;-70
2021/04/24 07:27:17;;;;;;;9.55;6.20;;;10.10;88.50;;;;;;5070685;28;20292;-70
2021/04/24 07:29:43;;;;;;;8.63;6.20;;;10.20;87.20;;;;;;5069118;28;20274;-69
2021/04/24 07:32:09;;;;;;;12.30;5.97;;;10.40;85.70;;;;;;5071231;28;20203;-69
2021/04/24 07:34:36;;;;;;;7.65;5.80;;;10.50;84.40;;;;;;5070084;28;20208;-69
2021/04/24 07:37:04;;;;;;;8.80;5.03;;;10.60;87.30;;;;;;5071004;28;20263;-69
2021/04/24 07:39:30;;;;;;;11.13;5.57;;;10.70;89.60;;;;;;5070307;28;20785;-69
2021/04/24 07:41:56;;;;;;;9.13;5.68;;;10.90;87.90;;;;;;5070040;28;20236;-69
2021/04/24 07:44:24;;;;;;;7.82;5.55;;;11.10;86.30;;;;;;5068975;28;20204;-69
2021/04/24 07:46:51;;;;;;;8.07;6.10;;;11.20;86.70;;;;;;5070013;28;20207;-70
2021/04/24 07:49:17;;;;;;;9.27;6.43;;;11.30;87.20;;;;;;5070084;28;20228;-69
2021/04/24 07:51:43;;;;;;;9.15;6.20;;;11.40;87.70;;;;;;5070333;28;20200;-69
2021/04/24 07:54:13;;;;;;;7.40;6.40;;;11.60;87.10;;;;;;5071664;28;20254;-70
2021/04/24 07:56:39;;;;;;;10.27;6.03;;;11.80;86.80;;;;;;5065996;28;20467;-67
2021/04/24 07:59:06;;;;;;;8.80;5.83;;;12.00;86.20;;;;;;5070764;28;20224;-67
2021/04/24 08:01:32;;;;;;;10.57;6.60;;;12.20;85.70;;;;;;5070883;28;20864;-69
2021/04/24 08:03:58;;;;;;;10.10;6.40;;;12.30;84.10;;;;;;5070323;28;20458;-67
2021/04/24 08:06:24;;;;;;;9.60;5.97;;;12.30;81.50;;;;;;5070753;28;20212;-69
2021/04/24 08:08:51;;;;;;;11.00;6.10;;;12.50;82.00;;;;;;5070391;28;20228;-70
2021/04/24 08:11:18;;;;;;;10.10;6.93;;;12.60;82.40;;;;;;5070356;28;20450;-69
2021/04/24 08:13:44;;;;;;;9.80;6.43;;;12.80;83.80;;;;;;5070174;28;20462;-68
2021/04/24 08:16:12;;;;;;;10.53;6.37;;;13.10;81.20;;;;;;5068334;28;20494;-67
2021/04/24 08:18:38;;;;;;;7.57;5.63;;;13.40;83.00;;;;;;5067941;28;20568;-70
2021/04/24 08:21:05;;;;;;;7.17;6.13;;;13.70;81.60;;;;;;5080946;22;20483;-69
2021/04/24 08:23:31;;;;;;;10.43;6.30;;;14.00;79.00;;;;;;5068538;28;21003;-68
2021/04/24 08:25:57;;;;;;;12.80;6.20;;;14.30;78.20;;;;;;5069646;28;20826;-69
2021/04/24 08:28:24;;;;;;;9.67;5.73;;;14.70;78.00;;;;;;5072052;28;20485;-68
2021/04/24 08:30:51;;;;;;;9.70;6.70;;;15.00;73.30;;;;;;5088893;28;20453;-70
2021/04/24 08:33:17;;;;;;;9.83;6.50;;;15.20;76.90;;;;;;5089454;28;20457;-70
2021/04/24 08:35:43;;;;;;;8.40;6.40;;;15.40;77.30;;;;;;5088869;28;20460;-68
2021/04/24 08:38:09;;;;;;;10.00;6.60;;;15.80;73.10;;;;;;5088013;28;20471;-71
2021/04/24 08:40:36;;;;;;;7.47;6.20;;;16.20;74.40;;;;;;5088408;28;20464;-69
2021/04/24 08:43:03;;;;;;;8.43;5.70;;;16.70;72.20;;;;;;5089862;28;20964;-69
2021/04/24 08:45:33;;;;;;;11.20;7.77;;;17.30;72.30;;;;;;5089453;28;20469;-68
2021/04/24 08:48:00;;;;;;;7.40;6.63;;;17.70;70.50;;;;;;5089446;28;20462;-68
2021/04/24 08:50:28;;;;;;;10.07;6.40;;;18.40;67.90;;;;;;5088257;28;20834;-69
2021/04/24 08:52:54;;;;;;;9.87;6.20;;;18.60;65.60;;;;;;5089301;28;21142;-68
2021/04/24 08:55:23;;;;;;;11.60;6.63;;;18.90;63.30;;;;;;5089186;28;20449;-69
2021/04/24 08:57:50;;;;;;;14.40;7.97;;;18.90;63.70;;;;;;5088957;28;20831;-68
2021/04/24 09:00:20;;;;;;;7.73;6.60;;;19.10;63.00;;;;;;5072472;28;20547;-68
2021/04/24 09:02:48;;;;;;;8.30;6.50;;;19.30;63.30;;;;;;5068619;28;20933;-69
2021/04/24 09:05:17;;;;;;;8.70;6.07;;;19.70;66.30;;;;;;5068981;28;20512;-69
2021/04/24 09:07:44;;;;;;;9.00;6.83;;;20.00;64.50;;;;;;5068684;28;20524;-70
2021/04/24 09:10:15;;;;;;;7.83;6.10;;;20.40;62.10;;;;;;5068623;28;20482;-68
2021/04/24 09:12:45;;;;;;;9.43;6.60;;;20.50;60.40;;;;;;5068403;28;20451;-69
2021/04/24 09:15:15;;;;;;;9.57;7.60;;;20.80;56.80;;;;;;5069084;28;20833;-70
2021/04/24 09:17:58;;;;;;;8.73;6.07;;;20.80;58.00;;;;;;5068271;28;20465;-69
2021/04/24 09:20:26;;;;;;;8.30;6.60;;;21.30;58.40;;;;;;5065849;28;21092;-68
2021/04/24 09:22:58;;;;;;;12.07;6.17;;;21.50;57.60;;;;;;5068329;28;20490;-68
2021/04/24 09:25:36;;;;;;;8.00;6.37;;;21.90;58.60;;;;;;5068730;28;20462;-69
2021/04/24 09:28:04;;;;;;;7.37;6.67;;;22.40;53.70;;;;;;5068211;28;20463;-69
2021/04/24 09:30:33;;;;;;;8.90;6.43;;;22.70;55.50;;;;;;5067875;28;20469;-68
2021/04/24 09:33:12;;;;;;;10.10;6.10;;;23.00;53.70;;;;;;5068205;28;20958;-69
2021/04/24 09:35:44;;;;;;;9.40;6.60;;;23.50;51.50;;;;;;5068034;28;20965;-69
2021/04/24 09:38:15;;;;;;;9.00;5.43;;;23.60;52.80;;;;;;5068088;28;20459;-68
2021/04/24 09:40:42;;;;;;;5.70;4.87;;;24.00;51.60;;;;;;5067685;28;20465;-68
2021/04/24 09:43:08;;;;;;;8.00;5.53;;;24.40;51.70;;;;;;5068580;28;20466;-69
2021/04/24 09:45:39;;;;;;;7.80;5.90;;;24.70;50.50;;;;;;5068181;28;20470;-69
2021/04/24 09:48:18;;;;;;;7.47;5.70;;;24.90;51.60;;;;;;5068533;28;20454;-69
2021/04/24 09:50:45;;;;;;;9.30;7.23;;;25.60;50.10;;;;;;5067908;28;20466;-69
2021/04/24 09:53:16;;;;;;;8.30;6.57;;;25.80;49.70;;;;;;5068656;28;20953;-69
2021/04/24 09:55:43;;;;;;;12.60;6.10;;;25.60;50.80;;;;;;5068599;28;20590;-68
2021/04/24 09:58:30;;;;;;;9.93;6.70;;;25.60;46.70;;;;;;5067918;28;20465;-70
2021/04/24 10:00:58;;;;;;;7.33;6.43;;;24.90;47.90;;;;;;5065024;28;20483;-69
2021/04/24 10:03:35;;;;;;;7.47;6.70;;;24.20;47.40;;;;;;5067434;28;20465;-69
2021/04/24 10:06:27;;;;;;;10.83;6.03;;;23.90;51.30;;;;;;5081742;28;20490;-70
2021/04/24 10:09:26;;;;;;;8.13;6.13;;;24.30;47.80;;;;;;5084536;28;20486;-68
2021/04/24 10:12:08;;;;;;;6.90;5.50;;;24.50;45.80;;;;;;5063480;28;20455;-66
2021/04/24 10:14:36;;;;;;;8.40;5.50;;;24.50;47.80;;;;;;5045057;28;20491;-67
2021/04/24 10:17:04;;;;;;;8.57;6.13;;;24.30;48.00;;;;;;5068439;28;20459;-67
2021/04/24 10:19:32;;;;;;;7.17;6.27;;;24.30;50.40;;;;;;5064694;28;20566;-67
2021/04/24 10:22:00;;;;;;;8.93;6.20;;;24.70;48.90;;;;;;5064792;28;20540;-70
2021/04/24 10:24:28;;;;;;;7.67;5.90;;;25.30;48.60;;;;;;5064451;28;20459;-71
2021/04/24 10:26:57;;;;;;;6.80;5.87;;;25.90;47.50;;;;;;5061091;28;20458;-70
2021/04/24 10:29:25;;;;;;;7.53;6.63;;;26.20;47.30;;;;;;5068178;28;20557;-71
2021/04/24 10:31:53;;;;;;;7.03;5.60;;;26.20;44.50;;;;;;5079178;28;21069;-70
2021/04/24 10:34:20;;;;;;;9.20;6.47;;;26.50;46.80;;;;;;5077490;28;20464;-71
2021/04/24 10:36:47;;;;;;;7.47;6.60;;;26.80;47.70;;;;;;5080839;28;21240;-70
2021/04/24 10:39:25;;;;;;;6.97;5.30;;;26.90;46.20;;;;;;5069808;28;20615;-69
2021/04/24 10:42:06;;;;;;;8.13;6.17;;;26.90;49.30;;;;;;5068358;28;21613;-69
2021/04/24 10:44:56;;;;;;;6.50;5.90;;;27.00;48.60;;;;;;5077403;28;20869;-69
2021/04/24 10:47:46;;;;;;;8.10;6.53;;;27.30;47.50;;;;;;5075948;28;20975;-70
2021/04/24 10:50:16;;;;;;;7.70;6.00;;;27.70;47.70;;;;;;5071412;28;20574;-69
2021/04/24 10:52:44;;;;;;;10.37;6.30;;;27.50;47.60;;;;;;5072395;28;20491;-69
2021/04/24 10:55:28;;;;;;;8.70;7.40;;;26.90;46.60;;;;;;5073194;28;20500;-70
2021/04/24 10:57:57;;;;;;;8.30;6.33;;;26.50;47.40;;;;;;5074928;28;20478;-70
2021/04/24 11:00:47;;;;;;;9.50;6.23;;;26.80;44.60;;;;;;5071273;28;20481;-70
2021/04/24 11:03:38;;;;;;;7.10;6.10;;;26.70;47.00;;;;;;5073414;28;20568;-70
2021/04/24 11:06:15;;;;;;;10.60;6.20;;;26.50;44.90;;;;;;5077644;28;20462;-70
2021/04/24 11:08:43;;;;;;;7.23;6.60;;;26.40;48.40;;;;;;5068456;28;20465;-71
2021/04/24 11:11:12;;;;;;;6.90;6.20;;;26.80;48.40;;;;;;5077274;28;20453;-70
2021/04/24 11:13:41;;;;;;;7.40;6.10;;;27.00;48.70;;;;;;5077500;28;20902;-70
2021/04/24 11:16:09;;;;;;;10.33;6.47;;;27.40;48.20;;;;;;5069242;28;20462;-70
2021/04/24 11:18:37;;;;;;;7.27;6.47;;;27.60;47.90;;;;;;5068806;28;20489;-70
2021/04/24 11:21:05;;;;;;;7.83;6.80;;;28.00;45.90;;;;;;5064784;28;20584;-70
2021/04/24 11:23:58;;;;;;;6.90;6.20;;;28.00;46.30;;;;;;5067461;28;21228;-70
2021/04/24 11:26:49;;;;;;;8.10;6.57;;;28.50;46.40;;;;;;5067041;28;20496;-70
2021/04/24 11:29:22;;;;;;;7.73;6.93;;;28.70;45.10;;;;;;5068707;28;20484;-70
2021/04/24 11:32:00;;;;;;;7.17;6.47;;;28.70;44.10;;;;;;5066247;28;20526;-70
2021/04/24 11:34:35;;;;;;;9.20;6.70;;;28.10;45.00;;;;;;5066062;28;20468;-70
2021/04/24 11:37:34;;;;;;;9.97;7.73;;;28.40;43.40;;;;;;5067574;28;20813;-69
2021/04/24 11:40:09;;;;;;;9.10;7.13;;;28.20;46.50;;;;;;5064900;28;20484;-70
2021/04/24 11:42:37;;;;;;;7.70;6.90;;;27.60;47.00;;;;;;5070084;28;21021;-70
2021/04/24 11:45:04;;;;;;;6.80;6.20;;;27.80;47.30;;;;;;5067129;28;21030;-72
2021/04/24 11:47:47;;;;;;;8.83;6.93;;;28.30;47.00;;;;;;5072598;28;20455;-72
2021/04/24 11:50:15;;;;;;;7.60;6.90;;;28.00;47.50;;;;;;5064847;28;21026;-72
2021/04/24 11:52:52;;;;;;;10.97;7.83;;;28.00;46.20;;;;;;5067949;28;20456;-72
2021/04/24 11:55:20;;;;;;;8.50;7.23;;;28.40;45.10;;;;;;5057483;28;20593;-72
2021/04/24 11:57:47;;;;;;;8.70;7.53;;;28.50;45.80;;;;;;5066277;28;20463;-72
2021/04/24 12:00:15;;;;;;;11.87;7.77;;;28.30;46.70;;;;;;5063705;28;20485;-71
2021/04/24 12:02:47;;;;;;;10.10;7.27;;;28.40;47.80;;;;;;5066369;28;20492;-72
2021/04/24 12:05:14;;;;;;;8.97;7.80;;;28.40;46.60;;;;;;5068094;28;21012;-72
2021/04/24 12:07:42;;;;;;;9.10;7.23;;;28.40;47.00;;;;;;5066197;28;20462;-71
2021/04/24 12:10:12;;;;;;;9.23;7.30;;;28.30;46.20;;;;;;5064103;28;20481;-73
2021/04/24 12:12:40;;;;;;;11.73;9.00;;;28.60;46.50;;;;;;5065799;28;20458;-72
2021/04/24 12:15:11;;;;;;;9.07;8.17;;;28.60;45.80;;;;;;5066420;28;20462;-72
2021/04/24 12:17:48;;;;;;;7.43;6.70;;;28.50;44.90;;;;;;5064682;28;20472;-72
2021/04/24 12:20:20;;;;;;;11.10;8.10;;;28.50;46.60;;;;;;5063451;28;20491;-72
2021/04/24 12:22:46;;;;;;;12.23;7.90;;;28.20;46.30;;;;;;5065893;28;20505;-73
2021/04/24 12:25:15;;;;;;;11.00;9.07;;;28.10;46.30;;;;;;5066411;28;20470;-72
2021/04/24 12:27:43;;;;;;;11.17;7.83;;;27.90;46.00;;;;;;5065581;28;21014;-72
2021/04/24 12:30:18;;;;;;;12.60;9.20;;;28.20;45.70;;;;;;5064937;28;20490;-72
2021/04/24 12:32:45;;;;;;;8.80;7.97;;;28.40;45.50;;;;;;5065819;28;20522;-72
2021/04/24 12:35:19;;;;;;;9.03;8.13;;;28.70;45.10;;;;;;5066721;28;20494;-72
2021/04/24 12:37:47;;;;;;;10.67;8.47;;;28.90;46.50;;;;;;5066008;28;20567;-72
2021/04/24 12:40:20;;;;;;;10.43;8.53;;;29.00;45.20;;;;;;5063308;28;20483;-73
2021/04/24 12:42:47;;;;;;;8.97;8.07;;;28.70;44.40;;;;;;5066611;28;20482;-72
2021/04/24 12:45:20;;;;;;;9.80;8.57;;;28.40;44.80;;;;;;5066256;28;20503;-72
2021/04/24 12:47:47;;;;;;;8.07;7.27;;;28.10;45.30;;;;;;5065647;28;20566;-72
2021/04/24 12:50:17;;;;;;;10.83;7.77;;;28.40;44.20;;;;;;5063492;28;20555;-72
2021/04/24 12:52:45;;;;;;;12.07;7.87;;;28.60;46.40;;;;;;5064865;28;20460;-71
2021/04/24 12:55:13;;;;;;;10.67;7.87;;;28.70;45.60;;;;;;5064933;28;20503;-71
2021/04/24 12:57:49;;;;;;;8.83;7.93;;;28.70;46.30;;;;;;5062367;28;20462;-72